Rochester Hills, Michigan
Current Conditions -  °F | °C
As of 5:55 PM on Friday 28 Nov 2014 (Local Time) from KVLL Reporting Station
Light Snow Light Snow  
Wind Chill: -7°   Ceiling: 7500
Heat Index: -3°   Visibility: 7mi
Dew Point: -6°   Wind: 6mph
Humidity: 83%   Direction: 170°S
Pressure: 30.18"   Gusts: NA
Location:  42.66°N, 83.16°W
Report Text: KVLL 282255Z AUTO 17005KT 7SM -SN SCT014 SCT020 OVC075 M03/M05 A3018 RMK AO2 T10301055
Loading
Personal Weather Stations






























Interactive Weather Map New forecast layout! Learn more

10-Day Weather Forecast

Advertisements
Track Severe Weather on mobile